Time;durP1;ratioP1;P1;durP2;ratioP2;P2;SDS_P1;SDS_P2;PMS_P1;PMS_P2;Temp;Humidity;BMP_temperature;BMP_pressure;BME280_temperature;BME280_humidity;BME280_pressure;Samples;Min_cycle;Max_cycle;Signal;HPM_P1;HPM_P2
2021/01/13 00:00:02;;;;;;;;;;;0.60;99.90;;;;;;5068689;28;19915;-75
2021/01/13 00:02:27;;;;;;;;;;;0.60;99.90;;;;;;5067864;28;19909;-76
2021/01/13 00:04:53;;;;;;;;;;;0.60;99.90;;;;;;5071047;28;20345;-77
2021/01/13 00:07:18;;;;;;;;;;;0.60;99.90;;;;;;5071308;28;19915;-76
2021/01/13 00:09:44;;;;;;;;;;;0.60;99.90;;;;;;5070199;28;19908;-77
2021/01/13 00:12:10;;;;;;;;;;;0.50;99.90;;;;;;5081835;28;19913;-76
2021/01/13 00:14:36;;;;;;;;;;;0.50;99.90;;;;;;5073747;28;19913;-77
2021/01/13 00:17:02;;;;;;;;;;;0.50;99.90;;;;;;5071264;28;19919;-76
2021/01/13 00:19:27;;;;;;;;;;;0.50;99.90;;;;;;5070233;28;20365;-77
2021/01/13 00:21:53;;;;;;;;;;;0.50;99.90;;;;;;5071568;28;20289;-77
2021/01/13 00:24:20;;;;;;;;;;;0.50;99.90;;;;;;5070323;28;19912;-77
2021/01/13 00:26:45;;;;;;;;;;;0.50;99.90;;;;;;5071227;28;19913;-77
2021/01/13 00:29:11;;;;;;;;;;;0.50;99.90;;;;;;5071705;28;20498;-77
2021/01/13 00:31:37;;;;;;;;;;;0.40;99.90;;;;;;5070506;28;19928;-77
2021/01/13 00:34:04;;;;;;;;;;;0.50;99.90;;;;;;5071740;28;19909;-77
2021/01/13 00:36:30;;;;;;;;;;;0.50;99.90;;;;;;5071146;28;19962;-76
2021/01/13 00:38:55;;;;;;;;;;;0.50;99.90;;;;;;5071577;28;19917;-77
2021/01/13 00:41:21;;;;;;;;;;;0.40;99.90;;;;;;5072261;28;19909;-77
2021/01/13 00:43:49;;;;;;;;;;;0.40;99.90;;;;;;5088813;28;20361;-76
2021/01/13 00:46:15;;;;;;;;;;;0.40;99.90;;;;;;5071390;28;19915;-77
2021/01/13 00:48:40;;;;;;;;;;;0.40;99.90;;;;;;5071644;28;20006;-76
2021/01/13 00:51:06;;;;;;;;;;;0.50;99.90;;;;;;5071681;28;19908;-77
2021/01/13 00:53:31;;;;;;;;;;;0.50;99.90;;;;;;5071486;28;19915;-77
2021/01/13 00:55:57;;;;;;;;;;;0.50;99.90;;;;;;5069737;28;20303;-77
2021/01/13 00:58:23;;;;;;;;;;;0.60;99.90;;;;;;5071428;28;19916;-77
2021/01/13 01:00:49;;;;;;;;;;;0.60;99.90;;;;;;5071646;28;19913;-75
2021/01/13 01:03:15;;;;;;;;;;;0.60;99.90;;;;;;5071524;28;19915;-76
2021/01/13 01:05:40;;;;;;;;;;;0.70;99.90;;;;;;5069872;28;19912;-77
2021/01/13 01:08:05;;;;;;;;;;;0.80;99.90;;;;;;5071667;28;19908;-77
2021/01/13 01:10:32;;;;;;;;;;;0.80;99.90;;;;;;5074132;28;19909;-77
2021/01/13 01:12:57;;;;;;;;;;;0.90;99.90;;;;;;5074603;28;20007;-77
2021/01/13 01:15:23;;;;;;;;;;;0.90;99.90;;;;;;5077018;28;19999;-76
2021/01/13 01:17:49;;;;;;;;;;;0.90;99.90;;;;;;5070072;28;19970;-76
2021/01/13 01:20:14;;;;;;;;;;;0.90;99.90;;;;;;5070672;28;20128;-77
2021/01/13 01:22:53;;;;;;;;;;;1.00;99.90;;;;;;5072072;28;19909;-77
2021/01/13 01:25:18;;;;;;;;;;;1.00;99.90;;;;;;5091443;28;19919;-77
2021/01/13 01:27:46;;;;;;;;;;;1.00;99.90;;;;;;5089650;28;20277;-77
2021/01/13 01:30:12;;;;;;;;;;;1.00;99.90;;;;;;5089849;28;20379;-77
2021/01/13 01:32:37;;;;;;;;;;;1.00;99.90;;;;;;5089739;28;19947;-75
2021/01/13 01:35:03;;;;;;;;;;;1.00;99.90;;;;;;5093375;28;19955;-77
2021/01/13 01:37:32;;;;;;;;;;;1.00;99.90;;;;;;5094197;28;19962;-77
2021/01/13 01:39:57;;;;;;;;;;;1.10;99.90;;;;;;5093197;28;20361;-77
2021/01/13 01:42:23;;;;;;;;;;;1.10;99.90;;;;;;5086576;28;19966;-77
2021/01/13 01:44:48;;;;;;;;;;;1.10;99.90;;;;;;5075143;28;19912;-77
2021/01/13 01:47:14;;;;;;;;;;;1.10;99.90;;;;;;5073169;28;19912;-76
2021/01/13 01:49:40;;;;;;;;;;;1.10;99.90;;;;;;5075346;28;20280;-75
2021/01/13 01:52:09;;;;;;;;;;;1.10;99.90;;;;;;5074590;28;19909;-75
2021/01/13 01:54:35;;;;;;;;;;;1.10;99.90;;;;;;5073009;28;19909;-76
2021/01/13 01:57:03;;;;;;;;;;;1.10;99.90;;;;;;5072632;28;19919;-77
2021/01/13 01:59:48;;;;;;;;;;;1.10;99.90;;;;;;5073949;28;20277;-76
2021/01/13 02:02:14;;;;;;;;;;;1.10;99.90;;;;;;5087071;28;20356;-76
2021/01/13 02:04:42;;;;;;;;;;;1.10;99.90;;;;;;5093184;28;19908;-76
2021/01/13 02:07:08;;;;;;;;;;;1.10;99.90;;;;;;5092760;28;19919;-76
2021/01/13 02:09:33;;;;;;;;;;;1.20;99.90;;;;;;5093206;28;19912;-76
2021/01/13 02:11:59;;;;;;;;;;;1.20;99.90;;;;;;5083997;28;19909;-76
2021/01/13 02:14:25;;;;;;;;;;;1.20;99.90;;;;;;5086336;28;19915;-76
2021/01/13 02:16:55;;;;;;;;;;;1.20;99.90;;;;;;5092121;28;19916;-76
2021/01/13 02:19:32;;;;;;;;;;;1.20;99.90;;;;;;5092643;28;19915;-76
2021/01/13 02:22:02;;;;;;;;;;;1.20;99.90;;;;;;5092804;28;20349;-76
2021/01/13 02:24:47;;;;;;;;;;;1.30;99.90;;;;;;5093199;28;19918;-76
2021/01/13 02:27:32;;;;;;;;;;;1.30;99.90;;;;;;5092027;28;19915;-76
2021/01/13 02:30:00;;;;;;;;;;;1.30;99.90;;;;;;5092545;28;19908;-76
2021/01/13 02:32:29;;;;;;;;;;;1.20;99.90;;;;;;5091423;28;19951;-75
2021/01/13 02:35:17;;;;;;;;;;;1.20;99.90;;;;;;5092688;28;20402;-76
2021/01/13 02:37:44;;;;;;;;;;;1.20;99.90;;;;;;5092162;28;19908;-76
2021/01/13 02:40:20;;;;;;;;;;;1.10;99.90;;;;;;5091365;28;19912;-76
2021/01/13 02:42:48;;;;;;;;;;;1.10;99.90;;;;;;5075933;28;19915;-76
2021/01/13 02:45:17;;;;;;;;;;;1.10;99.90;;;;;;5078138;28;19931;-76
2021/01/13 02:47:58;;;;;;;;;;;1.20;99.90;;;;;;5072383;28;19916;-76
2021/01/13 02:50:28;;;;;;;;;;;1.20;99.90;;;;;;5072874;28;19908;-76
2021/01/13 02:53:09;;;;;;;;;;;1.20;99.90;;;;;;5072715;28;19953;-76
2021/01/13 02:55:35;;;;;;;;;;;1.20;99.90;;;;;;5086626;28;19913;-76
2021/01/13 02:58:04;;;;;;;;;;;1.10;99.90;;;;;;5091810;28;19908;-76
2021/01/13 03:00:30;;;;;;;;;;;1.10;99.90;;;;;;5091935;28;19912;-76
2021/01/13 03:02:57;;;;;;;;;;;1.10;99.90;;;;;;5091788;28;19908;-75
2021/01/13 03:05:23;;;;;;;;;;;1.10;99.90;;;;;;5091950;28;19908;-76
2021/01/13 03:07:51;;;;;;;;;;;1.10;99.90;;;;;;5091548;28;20003;-76
2021/01/13 03:10:17;;;;;;;;;;;1.10;99.90;;;;;;5090903;28;20006;-76
2021/01/13 03:12:43;;;;;;;;;;;1.10;99.90;;;;;;5091510;28;20246;-76
2021/01/13 03:15:09;;;;;;;;;;;1.10;99.90;;;;;;5070892;28;19961;-76
2021/01/13 03:17:34;;;;;;;;;;;1.00;99.90;;;;;;5071902;28;19908;-76
2021/01/13 03:20:09;;;;;;;;;;;1.00;99.90;;;;;;5070985;28;20357;-76
2021/01/13 03:22:50;;;;;;;;;;;1.00;99.90;;;;;;5071100;28;19943;-76
2021/01/13 03:25:17;;;;;;;;;;;1.00;99.90;;;;;;5072181;28;19908;-76
2021/01/13 03:27:44;;;;;;;;;;;1.10;99.90;;;;;;5071747;28;19908;-75
2021/01/13 03:30:10;;;;;;;;;;;1.10;99.90;;;;;;5071921;28;19970;-76
2021/01/13 03:32:55;;;;;;;;;;;1.10;99.90;;;;;;5070765;28;19931;-76
2021/01/13 03:35:22;;;;;;;;;;;1.10;99.90;;;;;;5071924;28;19913;-76
2021/01/13 03:37:58;;;;;;;;;;;1.10;99.90;;;;;;5071570;28;19912;-76
2021/01/13 03:40:25;;;;;;;;;;;1.10;99.90;;;;;;5073276;28;20362;-75
2021/01/13 03:42:53;;;;;;;;;;;1.10;99.90;;;;;;5077360;28;20015;-75
2021/01/13 03:45:23;;;;;;;;;;;1.10;99.90;;;;;;5075908;28;19998;-75
2021/01/13 03:48:02;;;;;;;;;;;1.00;99.90;;;;;;5084639;28;20054;-76
2021/01/13 03:50:32;;;;;;;;;;;1.00;99.90;;;;;;5071761;28;19912;-76
2021/01/13 03:53:05;;;;;;;;;;;1.00;99.90;;;;;;5081916;28;20371;-75
2021/01/13 03:55:32;;;;;;;;;;;1.00;99.90;;;;;;5076357;28;19923;-75
2021/01/13 03:57:57;;;;;;;;;;;1.00;99.90;;;;;;5071448;28;19912;-76
2021/01/13 04:00:26;;;;;;;;;;;1.00;99.90;;;;;;5073149;28;20053;-75
2021/01/13 04:03:07;;;;;;;;;;;0.90;99.90;;;;;;5082201;28;20008;-75
2021/01/13 04:05:35;;;;;;;;;;;0.90;99.90;;;;;;5071614;28;20053;-75
2021/01/13 04:08:02;;;;;;;;;;;0.90;99.90;;;;;;5071390;28;19999;-75
2021/01/13 04:10:28;;;;;;;;;;;0.90;99.90;;;;;;5071637;28;19912;-76
2021/01/13 04:13:01;;;;;;;;;;;0.90;99.90;;;;;;5071527;28;19975;-75
2021/01/13 04:15:35;;;;;;;;;;;0.90;99.90;;;;;;5071425;28;19919;-75
2021/01/13 04:18:03;;;;;;;;;;;0.90;99.90;;;;;;5071355;28;19909;-75
2021/01/13 04:20:29;;;;;;;;;;;0.90;99.90;;;;;;5071458;28;19919;-76
2021/01/13 04:22:55;;;;;;;;;;;1.00;99.90;;;;;;5071544;28;19932;-76
2021/01/13 04:25:20;;;;;;;;;;;1.00;99.90;;;;;;5071460;28;20369;-76
2021/01/13 04:27:46;;;;;;;;;;;1.00;99.90;;;;;;5071001;28;20328;-76
2021/01/13 04:30:12;;;;;;;;;;;0.90;99.90;;;;;;5076224;28;19912;-75
2021/01/13 04:32:37;;;;;;;;;;;0.90;99.90;;;;;;5084068;28;20361;-75
2021/01/13 04:35:04;;;;;;;;;;;1.00;99.90;;;;;;5073186;28;20285;-75
2021/01/13 04:37:31;;;;;;;;;;;0.90;99.90;;;;;;5071037;28;19912;-76
2021/01/13 04:40:02;;;;;;;;;;;0.90;99.90;;;;;;5071196;28;20262;-75
2021/01/13 04:42:42;;;;;;;;;;;0.90;99.90;;;;;;5071454;28;20075;-76
2021/01/13 04:45:08;;;;;;;;;;;1.00;99.90;;;;;;5084965;28;20388;-76
2021/01/13 04:47:49;;;;;;;;;;;1.00;99.90;;;;;;5071101;28;19997;-75
2021/01/13 04:50:19;;;;;;;;;;;1.00;99.90;;;;;;5085774;28;19908;-76
2021/01/13 04:52:46;;;;;;;;;;;1.00;99.90;;;;;;5090183;28;19908;-75
2021/01/13 04:55:20;;;;;;;;;;;1.00;99.90;;;;;;5088814;28;20363;-76
2021/01/13 04:58:06;;;;;;;;;;;0.90;99.90;;;;;;5079385;28;19909;-75
2021/01/13 05:00:44;;;;;;;;;;;0.90;99.90;;;;;;5057774;28;20071;-75
2021/01/13 05:03:28;;;;;;;;;;;0.90;99.90;;;;;;5090313;28;19908;-75
2021/01/13 05:06:23;;;;;;;;;;;0.90;99.90;;;;;;5089872;28;20304;-75
2021/01/13 05:09:03;;;;;;;;;;;0.90;99.90;;;;;;5063151;28;20258;-76
2021/01/13 05:11:37;;;;;;;;;;;0.90;99.90;;;;;;5074693;28;19919;-75
2021/01/13 05:14:03;;;;;;;;;;;0.90;99.90;;;;;;5074556;28;19915;-76
2021/01/13 05:16:39;;;;;;;;;;;0.90;99.90;;;;;;5074191;28;20365;-76
2021/01/13 05:19:05;;;;;;;;;;;0.90;99.90;;;;;;5074525;28;20286;-75
2021/01/13 05:21:33;;;;;;;;;;;0.90;99.90;;;;;;5074626;28;20323;-75
2021/01/13 05:23:59;;;;;;;;;;;0.90;99.90;;;;;;5074213;28;19913;-75
2021/01/13 05:26:25;;;;;;;;;;;0.90;99.90;;;;;;5078151;28;20003;-76
2021/01/13 05:28:56;;;;;;;;;;;0.90;99.90;;;;;;5090447;28;19912;-75
2021/01/13 05:31:24;;;;;;;;;;;0.90;99.90;;;;;;5074350;28;19924;-75
2021/01/13 05:33:49;;;;;;;;;;;0.90;99.90;;;;;;5074356;28;20003;-76
2021/01/13 05:36:17;;;;;;;;;;;0.80;99.90;;;;;;5074407;28;20341;-76
2021/01/13 05:38:56;;;;;;;;;;;0.80;99.90;;;;;;5083427;28;19966;-76
2021/01/13 05:41:22;;;;;;;;;;;0.80;99.90;;;;;;5093801;28;19959;-76
2021/01/13 05:43:48;;;;;;;;;;;0.80;99.90;;;;;;5093723;28;20355;-76
2021/01/13 05:46:15;;;;;;;;;;;0.70;99.90;;;;;;5093496;28;19954;-76
2021/01/13 05:48:41;;;;;;;;;;;0.70;99.90;;;;;;5093415;28;19998;-76
2021/01/13 05:51:07;;;;;;;;;;;0.70;99.90;;;;;;5093341;28;19908;-76
2021/01/13 05:53:33;;;;;;;;;;;0.70;99.90;;;;;;5093338;28;19919;-76
2021/01/13 05:56:00;;;;;;;;;;;0.70;99.90;;;;;;5089392;28;19916;-76
2021/01/13 05:58:26;;;;;;;;;;;0.70;99.90;;;;;;5082873;28;20247;-76
2021/01/13 06:00:53;;;;;;;;;;;0.70;99.90;;;;;;5086224;28;19983;-76
2021/01/13 06:03:20;;;;;;;;;;;0.70;99.90;;;;;;5079768;28;19919;-76
2021/01/13 06:05:52;;;;;;;;;;;0.70;99.90;;;;;;5073342;28;19970;-76
2021/01/13 06:08:18;;;;;;;;;;;0.70;99.90;;;;;;5073626;28;19913;-76
2021/01/13 06:10:44;;;;;;;;;;;0.70;99.90;;;;;;5073771;28;20042;-76
2021/01/13 06:13:14;;;;;;;;;;;0.70;99.90;;;;;;5073753;28;20000;-76
2021/01/13 06:15:42;;;;;;;;;;;0.70;99.90;;;;;;5073318;28;20003;-76
2021/01/13 06:18:08;;;;;;;;;;;0.60;99.90;;;;;;5077437;28;19913;-76
2021/01/13 06:20:34;;;;;;;;;;;0.60;99.90;;;;;;5092768;28;20295;-76
2021/01/13 06:22:59;;;;;;;;;;;0.70;99.90;;;;;;5092891;28;19912;-76
2021/01/13 06:25:29;;;;;;;;;;;0.60;99.90;;;;;;5092966;28;20402;-76
2021/01/13 06:27:57;;;;;;;;;;;0.70;99.90;;;;;;5092512;28;19912;-76
2021/01/13 06:30:26;;;;;;;;;;;0.70;99.90;;;;;;5088358;28;20003;-76
2021/01/13 06:32:53;;;;;;;;;;;0.70;99.90;;;;;;5085821;28;19934;-76
2021/01/13 06:35:38;;;;;;;;;;;0.60;99.90;;;;;;5073451;28;20397;-76
2021/01/13 06:38:06;;;;;;;;;;;0.70;99.90;;;;;;5073488;28;19909;-75
2021/01/13 06:40:32;;;;;;;;;;;0.60;99.90;;;;;;5079750;28;19991;-75
2021/01/13 06:43:09;;;;;;;;;;;0.60;99.90;;;;;;5092726;28;20007;-75
2021/01/13 06:45:34;;;;;;;;;;;0.60;99.90;;;;;;5092537;28;19912;-78
2021/01/13 06:48:00;;;;;;;;;;;0.60;99.90;;;;;;5085539;28;19908;-75
2021/01/13 06:50:31;;;;;;;;;;;0.60;99.90;;;;;;5073753;28;19909;-75
2021/01/13 06:52:57;;;;;;;;;;;0.50;99.90;;;;;;5073327;28;19908;-76
2021/01/13 06:55:30;;;;;;;;;;;0.50;99.90;;;;;;5079821;28;19916;-79
2021/01/13 06:57:56;;;;;;;;;;;0.50;99.90;;;;;;5091759;28;19908;-78
2021/01/13 07:00:22;;;;;;;;;;;0.40;99.90;;;;;;5086140;28;19954;-76
2021/01/13 07:02:47;;;;;;;;;;;0.40;99.90;;;;;;5095947;28;19907;-76
2021/01/13 07:05:31;;;;;;;;;;;0.30;99.90;;;;;;5072662;28;19916;-78
2021/01/13 07:07:59;;;;;;;;;;;0.20;99.90;;;;;;5071024;28;19909;-78
2021/01/13 07:10:25;;;;;;;;;;;0.20;99.90;;;;;;5072468;28;19920;-75
2021/01/13 07:12:51;;;;;;;;;;;0.10;99.90;;;;;;5079442;28;19973;-75
2021/01/13 07:15:17;;;;;;;;;;;0.10;99.90;;;;;;5078168;28;20011;-75
2021/01/13 07:17:43;;;;;;;;;;;0.10;99.90;;;;;;5072993;28;20455;-75
2021/01/13 07:20:09;;;;;;;;;;;0.00;99.90;;;;;;5072387;28;19912;-75
2021/01/13 07:22:34;;;;;;;;;;;-0.10;99.90;;;;;;5072425;28;19931;-75
2021/01/13 07:25:00;;;;;;;;;;;0.00;99.90;;;;;;5072035;28;20030;-76
2021/01/13 07:27:25;;;;;;;;;;;-0.10;99.90;;;;;;5072062;28;20014;-78
2021/01/13 07:29:51;;;;;;;;;;;-0.10;99.90;;;;;;5072996;28;19962;-75
2021/01/13 07:32:20;;;;;;;;;;;-0.10;99.90;;;;;;5082997;28;20371;-75
2021/01/13 07:34:52;;;;;;;;;;;-0.10;99.90;;;;;;5075941;28;19916;-76
2021/01/13 07:37:21;;;;;;;;;;;-0.10;99.90;;;;;;5071296;28;19947;-78
2021/01/13 07:39:59;;;;;;;;;;;0.00;99.90;;;;;;5072085;28;19915;-76
2021/01/13 07:42:38;;;;;;;;;;;0.00;99.90;;;;;;5088866;28;20014;-75
2021/01/13 07:45:10;;;;;;;;;;;0.00;99.90;;;;;;5091467;28;19915;-76
2021/01/13 07:47:54;;;;;;;;;;;0.00;99.90;;;;;;5091118;28;19931;-79
2021/01/13 07:50:19;;;;;;;;;;;0.00;99.90;;;;;;5083364;28;20372;-75
2021/01/13 07:52:46;;;;;;;;;;;-0.10;99.90;;;;;;5072014;28;19908;-76
2021/01/13 07:55:21;;;;;;;;;;;-0.10;99.90;;;;;;5071945;28;20323;-75
2021/01/13 07:57:48;;;;;;;;;;;-0.10;99.90;;;;;;5070417;28;19909;-76
2021/01/13 08:00:22;;;;;;;;;;;-0.10;99.90;;;;;;5072147;28;20372;-76
2021/01/13 08:03:06;;;;;;;;;;;-0.10;99.90;;;;;;5081778;28;19908;-75
2021/01/13 08:05:50;;;;;;;;;;;-0.20;99.90;;;;;;5083080;28;19908;-75
2021/01/13 08:08:22;;;;;;;;;;;-0.20;99.90;;;;;;5073723;28;19968;-75
2021/01/13 08:10:49;;;;;;;;;;;-0.20;99.90;;;;;;5071519;28;19916;-75
2021/01/13 08:13:15;;;;;;;;;;;-0.20;99.90;;;;;;5070835;28;20445;-76
2021/01/13 08:15:43;;;;;;;;;;;-0.10;99.90;;;;;;5081765;28;20045;-75
2021/01/13 08:18:39;;;;;;;;;;;-0.10;99.90;;;;;;5071608;28;20011;-76
2021/01/13 08:22:08;;;;;;;;;;;-0.10;99.90;;;;;;5080673;28;19908;-79
2021/01/13 08:26:31;;;;;;;;;;;0.10;99.90;;;;;;5079699;28;20043;-76
2021/01/13 08:28:57;;;;;;;;;;;0.20;99.90;;;;;;5082830;28;20003;-79
2021/01/13 08:31:27;;;;;;;;;;;0.30;99.90;;;;;;5079702;28;20386;-76
2021/01/13 08:34:12;;;;;;;;;;;0.50;99.90;;;;;;5079556;28;19919;-75
2021/01/13 08:36:39;;;;;;;;;;;0.70;99.90;;;;;;5078912;28;20166;-76
2021/01/13 08:39:08;;;;;;;;;;;0.90;99.90;;;;;;5073288;28;19931;-75
2021/01/13 08:41:34;;;;;;;;;;;1.20;99.90;;;;;;5080035;28;19918;-75
2021/01/13 08:44:01;;;;;;;;;;;1.60;99.90;;;;;;5076683;28;20384;-75
2021/01/13 08:46:34;;;;;;;;;;;2.10;99.90;;;;;;5080836;28;19912;-75
2021/01/13 08:49:02;;;;;;;;;;;2.40;99.90;;;;;;5082779;28;19970;-76
2021/01/13 08:51:28;;;;;;;;;;;2.70;99.90;;;;;;5084098;28;19961;-76
2021/01/13 08:53:53;;;;;;;;;;;2.90;99.90;;;;;;5081577;28;20353;-79
2021/01/13 08:56:19;;;;;;;;;;;3.20;99.90;;;;;;5084900;28;19916;-76
2021/01/13 08:58:54;;;;;;;;;;;3.50;99.90;;;;;;5081434;28;19939;-76
2021/01/13 09:01:20;;;;;;;;;;;3.90;99.90;;;;;;5081756;28;20269;-76
2021/01/13 09:03:50;;;;;;;;;;;4.50;99.90;;;;;;5084899;28;20396;-81
2021/01/13 09:06:20;;;;;;;;;;;5.10;99.90;;;;;;5083310;28;19908;-81
2021/01/13 09:08:47;;;;;;;;;;;5.50;99.90;;;;;;5077523;28;19915;-77
2021/01/13 09:11:29;;;;;;;;;;;5.60;99.90;;;;;;5080061;28;19909;-77
2021/01/13 09:13:55;;;;;;;;;;;5.50;99.90;;;;;;5084054;28;19909;-76
2021/01/13 09:16:26;;;;;;;;;;;5.30;99.90;;;;;;5082401;28;20278;-77
2021/01/13 09:18:55;;;;;;;;;;;5.10;99.90;;;;;;5084146;28;19909;-76
2021/01/13 09:21:37;;;;;;;;;;;4.80;99.90;;;;;;5092079;28;19909;-77
2021/01/13 09:24:03;;;;;;;;;;;4.50;99.90;;;;;;5077924;28;19908;-76
2021/01/13 09:26:32;;;;;;;;;;;4.20;99.90;;;;;;5087143;28;19912;-76
2021/01/13 09:29:02;;;;;;;;;;;3.80;99.90;;;;;;5085195;28;19908;-78
2021/01/13 09:31:27;;;;;;;;;;;3.50;99.90;;;;;;5085090;28;19916;-76
2021/01/13 09:33:53;;;;;;;;;;;3.30;99.90;;;;;;5078712;28;20395;-76
2021/01/13 09:36:20;;;;;;;;;;;3.20;99.90;;;;;;5078853;28;19925;-77
2021/01/13 09:38:47;;;;;;;;;;;3.00;99.90;;;;;;5076588;28;20360;-77
2021/01/13 09:41:22;;;;;;;;;;;2.90;99.90;;;;;;5089992;28;20218;-76
2021/01/13 09:43:47;;;;;;;;;;;2.80;99.90;;;;;;5085246;28;19915;-76
2021/01/13 09:46:22;;;;;;;;;;;2.60;99.90;;;;;;5089129;28;20342;-76
2021/01/13 09:49:06;;;;;;;;;;;2.50;99.90;;;;;;5074411;28;20360;-76
2021/01/13 09:51:32;;;;;;;;;;;2.50;99.90;;;;;;5088952;28;19908;-77
2021/01/13 09:54:00;;;;;;;;;;;2.40;99.90;;;;;;5078838;28;20179;-76
2021/01/13 09:56:26;;;;;;;;;;;2.40;99.90;;;;;;5073617;28;19958;-76
2021/01/13 09:58:52;;;;;;;;;;;2.40;99.90;;;;;;5074137;28;20377;-76
2021/01/13 10:01:22;;;;;;;;;;;2.30;99.90;;;;;;5080828;28;20357;-76
2021/01/13 10:03:49;;;;;;;;;;;2.30;99.90;;;;;;5083835;28;19908;-77
2021/01/13 10:06:19;;;;;;;;;;;2.30;99.90;;;;;;5073659;28;19912;-77
2021/01/13 10:08:45;;;;;;;;;;;2.30;99.90;;;;;;5073886;28;19915;-76
2021/01/13 10:11:11;;;;;;;;;;;2.30;99.90;;;;;;5074035;28;19931;-76
2021/01/13 10:13:38;;;;;;;;;;;2.40;99.90;;;;;;5074243;28;19908;-76
2021/01/13 10:16:04;;;;;;;;;;;2.40;99.90;;;;;;5073457;28;19920;-78
2021/01/13 10:18:29;;;;;;;;;;;2.40;99.90;;;;;;5073514;28;19912;-80
2021/01/13 10:20:56;;;;;;;;;;;2.40;99.90;;;;;;5073862;28;19908;-77
2021/01/13 10:23:25;;;;;;;;;;;2.40;99.90;;;;;;5072465;28;19967;-76
2021/01/13 10:25:59;;;;;;;;;;;2.40;99.90;;;;;;5073414;28;19936;-76
2021/01/13 10:28:27;;;;;;;;;;;2.50;99.90;;;;;;5073394;28;19995;-76
2021/01/13 10:30:53;;;;;;;;;;;2.40;99.90;;;;;;5083228;28;19916;-77
2021/01/13 10:33:35;;;;;;;;;;;2.50;99.90;;;;;;5076361;28;19915;-76
2021/01/13 10:36:00;;;;;;;;;;;2.60;99.90;;;;;;5090228;28;19912;-76
2021/01/13 10:38:26;;;;;;;;;;;2.60;99.90;;;;;;5091815;28;19954;-79
2021/01/13 10:40:52;;;;;;;;;;;2.60;99.90;;;;;;5093030;28;19923;-76
2021/01/13 10:43:21;;;;;;;;;;;2.70;99.90;;;;;;5091075;28;19912;-77
2021/01/13 10:45:56;;;;;;;;;;;2.60;99.90;;;;;;5091930;28;20006;-77
2021/01/13 10:48:22;;;;;;;;;;;2.60;99.90;;;;;;5081541;28;19908;-77
2021/01/13 10:50:49;;;;;;;;;;;2.60;99.90;;;;;;5072923;28;19962;-76
2021/01/13 10:53:14;;;;;;;;;;;2.60;99.90;;;;;;5072524;28;19915;-77
2021/01/13 10:55:43;;;;;;;;;;;2.60;99.90;;;;;;5072304;28;20003;-76
2021/01/13 10:58:10;;;;;;;;;;;2.70;99.90;;;;;;5072611;28;19915;-76
2021/01/13 11:00:35;;;;;;;;;;;2.70;99.90;;;;;;5073982;28;19908;-76
2021/01/13 11:03:04;;;;;;;;;;;2.80;99.90;;;;;;5086263;28;20268;-76
2021/01/13 11:05:33;;;;;;;;;;;2.90;99.90;;;;;;5071731;28;19909;-76
2021/01/13 11:07:59;;;;;;;;;;;3.00;99.90;;;;;;5074094;28;19917;-77
2021/01/13 11:10:24;;;;;;;;;;;3.00;99.90;;;;;;5080552;28;19909;-76
2021/01/13 11:13:00;;;;;;;;;;;3.00;99.90;;;;;;5074074;28;19909;-76
2021/01/13 11:15:25;;;;;;;;;;;3.10;99.90;;;;;;5070888;28;19913;-76
2021/01/13 11:17:54;;;;;;;;;;;3.10;99.90;;;;;;5072050;28;20196;-77
2021/01/13 11:20:21;;;;;;;;;;;3.10;99.90;;;;;;5072098;28;20007;-76
2021/01/13 11:22:49;;;;;;;;;;;3.10;99.90;;;;;;5072256;28;19908;-77
2021/01/13 11:25:18;;;;;;;;;;;3.20;99.90;;;;;;5070885;28;19908;-76
2021/01/13 11:27:44;;;;;;;;;;;3.30;99.90;;;;;;5072046;28;19931;-77
2021/01/13 11:30:13;;;;;;;;;;;3.30;99.90;;;;;;5077649;28;20361;-76
2021/01/13 11:32:40;;;;;;;;;;;3.30;99.90;;;;;;5079046;28;20371;-76
2021/01/13 11:35:06;;;;;;;;;;;3.30;99.90;;;;;;5086168;28;19916;-77
2021/01/13 11:37:31;;;;;;;;;;;3.30;99.90;;;;;;5091058;28;20335;-77
2021/01/13 11:40:07;;;;;;;;;;;3.30;99.90;;;;;;5091358;28;20254;-77
2021/01/13 11:42:52;;;;;;;;;;;3.20;99.90;;;;;;5091219;28;19968;-78
2021/01/13 11:45:21;;;;;;;;;;;3.10;99.90;;;;;;5090860;28;19908;-80
2021/01/13 11:47:52;;;;;;;;;;;3.10;99.90;;;;;;5090947;28;19908;-76
2021/01/13 11:50:22;;;;;;;;;;;3.10;99.90;;;;;;5091360;28;19981;-76
2021/01/13 11:52:49;;;;;;;;;;;3.10;99.90;;;;;;5091151;28;19914;-77
2021/01/13 11:55:14;;;;;;;;;;;3.10;99.90;;;;;;5082317;28;19931;-76
2021/01/13 11:57:44;;;;;;;;;;;3.20;99.90;;;;;;5071091;28;19909;-77
2021/01/13 12:00:13;;;;;;;;;;;3.10;99.90;;;;;;5073709;28;19916;-77
2021/01/13 12:02:39;;;;;;;;;;;3.20;99.90;;;;;;5078018;28;19911;-77
2021/01/13 12:05:06;;;;;;;;;;;3.20;99.90;;;;;;5073844;28;19917;-76
2021/01/13 12:07:31;;;;;;;;;;;3.10;99.90;;;;;;5090590;28;20006;-77
2021/01/13 12:10:06;;;;;;;;;;;3.10;99.90;;;;;;5090931;28;20332;-77
2021/01/13 12:12:32;;;;;;;;;;;3.10;99.90;;;;;;5090524;28;19908;-77
2021/01/13 12:15:02;;;;;;;;;;;3.10;99.90;;;;;;5090887;28;19994;-78
2021/01/13 12:17:31;;;;;;;;;;;3.10;99.90;;;;;;5090029;28;19957;-79
2021/01/13 12:19:56;;;;;;;;;;;3.10;99.90;;;;;;5090718;28;19915;-76
2021/01/13 12:22:32;;;;;;;;;;;3.20;99.90;;;;;;5090639;28;19908;-76
2021/01/13 12:24:57;;;;;;;;;;;3.20;99.90;;;;;;5090530;28;19915;-76
2021/01/13 12:27:24;;;;;;;;;;;3.20;99.90;;;;;;5090298;28;20277;-75
2021/01/13 12:30:09;;;;;;;;;;;3.30;99.90;;;;;;5085918;28;20058;-76
2021/01/13 12:32:35;;;;;;;;;;;3.20;99.90;;;;;;5085558;28;19912;-78
2021/01/13 12:35:00;;;;;;;;;;;3.10;99.90;;;;;;5071722;28;19916;-76
2021/01/13 12:37:26;;;;;;;;;;;3.00;99.90;;;;;;5070733;28;20183;-76
2021/01/13 12:39:54;;;;;;;;;;;2.90;99.90;;;;;;5071206;28;19916;-76
2021/01/13 12:42:20;;;;;;;;;;;2.90;99.90;;;;;;5083558;28;19909;-76
2021/01/13 12:44:45;;;;;;;;;;;2.80;99.90;;;;;;5090649;28;19915;-76
2021/01/13 12:47:11;;;;;;;;;;;2.90;99.90;;;;;;5090237;28;19914;-77
2021/01/13 12:49:37;;;;;;;;;;;2.90;99.90;;;;;;5089184;28;20434;-78
2021/01/13 12:52:02;;;;;;;;;;;3.00;99.90;;;;;;5090919;28;20003;-76
2021/01/13 12:54:28;;;;;;;;;;;3.00;99.90;;;;;;5089269;28;19912;-76
2021/01/13 12:56:54;;;;;;;;;;;3.00;99.90;;;;;;5090082;28;20348;-76
2021/01/13 12:59:20;;;;;;;;;;;3.00;99.90;;;;;;5077357;28;20392;-77
2021/01/13 13:01:46;;;;;;;;;;;3.00;99.90;;;;;;5074407;28;19955;-78
2021/01/13 13:04:12;;;;;;;;;;;3.00;99.90;;;;;;5080522;28;19908;-76
2021/01/13 13:06:38;;;;;;;;;;;2.90;99.90;;;;;;5089502;28;19908;-79
2021/01/13 13:09:05;;;;;;;;;;;2.80;99.90;;;;;;5090195;28;19969;-77
2021/01/13 13:11:30;;;;;;;;;;;2.70;99.90;;;;;;5090142;28;19930;-76
2021/01/13 13:13:59;;;;;;;;;;;2.60;99.90;;;;;;5090331;28;20400;-76
2021/01/13 13:16:24;;;;;;;;;;;2.50;99.90;;;;;;5090062;28;19967;-76
2021/01/13 13:18:52;;;;;;;;;;;2.40;99.90;;;;;;5088935;28;20003;-76
2021/01/13 13:21:18;;;;;;;;;;;2.40;99.90;;;;;;5073816;28;19909;-77
2021/01/13 13:23:44;;;;;;;;;;;2.50;99.90;;;;;;5070917;28;20329;-76
2021/01/13 13:26:10;;;;;;;;;;;2.50;99.90;;;;;;5070604;28;19966;-77
2021/01/13 13:28:37;;;;;;;;;;;2.60;99.90;;;;;;5070890;28;19996;-77
2021/01/13 13:31:03;;;;;;;;;;;2.60;99.90;;;;;;5081011;28;19923;-76
2021/01/13 13:33:28;;;;;;;;;;;2.60;99.90;;;;;;5078445;28;19913;-76
2021/01/13 13:35:54;;;;;;;;;;;2.60;99.90;;;;;;5073963;28;19920;-79
2021/01/13 13:38:19;;;;;;;;;;;2.70;99.90;;;;;;5074429;28;20486;-76
2021/01/13 13:40:45;;;;;;;;;;;2.70;99.90;;;;;;5074479;28;19908;-75
2021/01/13 13:43:11;;;;;;;;;;;2.60;99.90;;;;;;5074610;28;19908;-75
2021/01/13 13:45:36;;;;;;;;;;;2.60;99.90;;;;;;5074041;28;19928;-77
2021/01/13 13:48:02;;;;;;;;;;;2.50;99.90;;;;;;5074144;28;20011;-76
2021/01/13 13:50:28;;;;;;;;;;;2.50;99.90;;;;;;5074015;28;19909;-76
2021/01/13 13:52:53;;;;;;;;;;;2.40;99.90;;;;;;5081034;28;19908;-76
2021/01/13 13:55:19;;;;;;;;;;;2.40;99.90;;;;;;5093379;28;19982;-76
2021/01/13 13:57:44;;;;;;;;;;;2.30;99.90;;;;;;5093345;28;19987;-79
2021/01/13 14:00:10;;;;;;;;;;;2.30;99.90;;;;;;5086837;28;19909;-76
2021/01/13 14:02:35;;;;;;;;;;;2.40;99.90;;;;;;5090163;28;19908;-76
2021/01/13 14:05:01;;;;;;;;;;;2.50;99.90;;;;;;5074169;28;19908;-76
2021/01/13 14:07:27;;;;;;;;;;;2.50;99.90;;;;;;5073727;28;19912;-76
2021/01/13 14:09:52;;;;;;;;;;;2.50;99.90;;;;;;5073810;28;19962;-75
2021/01/13 14:12:18;;;;;;;;;;;2.50;99.90;;;;;;5073895;28;19912;-76
2021/01/13 14:14:43;;;;;;;;;;;2.50;99.90;;;;;;5078777;28;20275;-76
2021/01/13 14:17:09;;;;;;;;;;;2.50;99.90;;;;;;5085869;28;19912;-79
2021/01/13 14:19:34;;;;;;;;;;;2.40;99.90;;;;;;5085181;28;19908;-76
2021/01/13 14:22:00;;;;;;;;;;;2.40;99.90;;;;;;5076363;28;19917;-76
2021/01/13 14:24:25;;;;;;;;;;;2.30;99.90;;;;;;5074187;28;19912;-77
2021/01/13 14:26:56;;;;;;;;;;;2.30;99.90;;;;;;5072359;28;19991;-76
2021/01/13 14:29:21;;;;;;;;;;;2.20;99.90;;;;;;5072511;28;19948;-78
2021/01/13 14:31:46;;;;;;;;;;;2.20;99.90;;;;;;5082902;28;19975;-76
2021/01/13 14:34:12;;;;;;;;;;;2.10;99.90;;;;;;5084214;28;19909;-75
2021/01/13 14:36:37;;;;;;;;;;;2.10;99.90;;;;;;5073152;28;19919;-76
2021/01/13 14:39:03;;;;;;;;;;;2.00;99.90;;;;;;5071998;28;20373;-75